sensor_id;sensor_type;location;lat;lon;timestamp;pressure;altitude;pressure_sealevel;temperature;humidity
45763;BME280;37512;52.408;13.356;2023-07-13T00:03:19;100742.81;;;18.80;100.00
45763;BME280;37512;52.408;13.356;2023-07-13T00:07:20;100737.63;;;18.75;100.00
45763;BME280;37512;52.408;13.356;2023-07-13T00:11:22;100735.19;;;18.43;100.00
45763;BME280;37512;52.408;13.356;2023-07-13T00:15:26;100750.66;;;18.58;100.00
45763;BME280;37512;52.408;13.356;2023-07-13T00:19:27;100750.28;;;18.56;100.00
45763;BME280;37512;52.408;13.356;2023-07-13T00:23:29;100748.59;;;18.66;100.00
45763;BME280;37512;52.408;13.356;2023-07-13T00:27:31;100757.72;;;18.73;100.00
45763;BME280;37512;52.408;13.356;2023-07-13T00:31:33;100757.75;;;18.70;100.00
45763;BME280;37512;52.408;13.356;2023-07-13T00:35:34;100748.91;;;18.71;100.00
45763;BME280;37512;52.408;13.356;2023-07-13T00:39:36;100744.00;;;18.79;100.00
45763;BME280;37512;52.408;13.356;2023-07-13T00:43:38;100745.69;;;18.73;100.00
45763;BME280;37512;52.408;13.356;2023-07-13T00:47:40;100744.47;;;18.77;100.00
45763;BME280;37512;52.408;13.356;2023-07-13T00:51:49;100748.66;;;18.58;100.00
45763;BME280;37512;52.408;13.356;2023-07-13T00:55:53;100759.88;;;18.62;100.00
45763;BME280;37512;52.408;13.356;2023-07-13T00:59:58;100755.66;;;18.43;100.00
45763;BME280;37512;52.408;13.356;2023-07-13T01:04:07;100766.94;;;18.39;100.00
45763;BME280;37512;52.408;13.356;2023-07-13T01:08:09;100766.34;;;18.17;100.00
45763;BME280;37512;52.408;13.356;2023-07-13T01:12:11;100759.75;;;17.93;100.00
45763;BME280;37512;52.408;13.356;2023-07-13T01:16:18;100766.69;;;17.78;100.00
45763;BME280;37512;52.408;13.356;2023-07-13T01:20:21;100763.94;;;17.71;100.00
45763;BME280;37512;52.408;13.356;2023-07-13T01:24:23;100767.25;;;17.55;100.00
45763;BME280;37512;52.408;13.356;2023-07-13T01:28:25;100754.63;;;17.25;100.00
45763;BME280;37512;52.408;13.356;2023-07-13T01:32:31;100755.81;;;17.31;100.00
45763;BME280;37512;52.408;13.356;2023-07-13T01:36:34;100751.81;;;17.25;100.00
45763;BME280;37512;52.408;13.356;2023-07-13T01:40:36;100763.19;;;17.04;100.00
45763;BME280;37512;52.408;13.356;2023-07-13T01:44:38;100757.91;;;17.13;100.00
45763;BME280;37512;52.408;13.356;2023-07-13T01:48:40;100751.09;;;17.10;100.00
45763;BME280;37512;52.408;13.356;2023-07-13T01:52:41;100761.56;;;17.03;100.00
45763;BME280;37512;52.408;13.356;2023-07-13T01:56:43;100764.00;;;16.93;100.00
45763;BME280;37512;52.408;13.356;2023-07-13T02:00:48;100757.66;;;16.86;100.00
45763;BME280;37512;52.408;13.356;2023-07-13T02:04:49;100754.91;;;16.57;100.00
45763;BME280;37512;52.408;13.356;2023-07-13T02:08:51;100753.81;;;16.15;100.00
45763;BME280;37512;52.408;13.356;2023-07-13T02:12:53;100754.19;;;16.31;100.00
45763;BME280;37512;52.408;13.356;2023-07-13T02:16:57;100749.78;;;16.34;100.00
45763;BME280;37512;52.408;13.356;2023-07-13T02:20:59;100727.41;;;16.23;100.00
45763;BME280;37512;52.408;13.356;2023-07-13T02:25:00;100718.94;;;16.41;100.00
45763;BME280;37512;52.408;13.356;2023-07-13T02:29:02;100722.59;;;16.31;100.00
45763;BME280;37512;52.408;13.356;2023-07-13T02:33:05;100728.19;;;16.27;100.00
45763;BME280;37512;52.408;13.356;2023-07-13T02:37:06;100737.78;;;16.30;100.00
45763;BME280;37512;52.408;13.356;2023-07-13T02:41:09;100746.25;;;16.08;100.00
45763;BME280;37512;52.408;13.356;2023-07-13T02:45:11;100749.44;;;15.96;100.00
45763;BME280;37512;52.408;13.356;2023-07-13T02:49:15;100760.66;;;16.03;100.00
45763;BME280;37512;52.408;13.356;2023-07-13T02:53:17;100757.03;;;15.88;100.00
45763;BME280;37512;52.408;13.356;2023-07-13T02:57:18;100767.44;;;15.92;100.00
45763;BME280;37512;52.408;13.356;2023-07-13T03:01:21;100769.44;;;15.95;100.00
45763;BME280;37512;52.408;13.356;2023-07-13T03:05:23;100775.84;;;15.74;100.00
45763;BME280;37512;52.408;13.356;2023-07-13T03:09:25;100787.03;;;15.74;100.00
45763;BME280;37512;52.408;13.356;2023-07-13T03:13:27;100779.00;;;15.61;100.00
45763;BME280;37512;52.408;13.356;2023-07-13T03:17:28;100776.97;;;15.62;100.00
45763;BME280;37512;52.408;13.356;2023-07-13T03:21:30;100776.19;;;15.61;100.00
45763;BME280;37512;52.408;13.356;2023-07-13T03:25:31;100767.47;;;15.74;100.00
45763;BME280;37512;52.408;13.356;2023-07-13T03:29:33;100776.22;;;15.76;100.00
45763;BME280;37512;52.408;13.356;2023-07-13T03:33:35;100776.63;;;15.85;100.00
45763;BME280;37512;52.408;13.356;2023-07-13T03:37:36;100779.44;;;15.92;100.00
45763;BME280;37512;52.408;13.356;2023-07-13T03:41:43;100789.81;;;16.09;100.00
45763;BME280;37512;52.408;13.356;2023-07-13T03:45:45;100786.22;;;16.13;100.00
45763;BME280;37512;52.408;13.356;2023-07-13T03:49:46;100797.81;;;16.25;100.00
45763;BME280;37512;52.408;13.356;2023-07-13T03:53:48;100798.97;;;16.35;100.00
45763;BME280;37512;52.408;13.356;2023-07-13T03:57:58;100799.34;;;16.44;100.00
45763;BME280;37512;52.408;13.356;2023-07-13T04:02:01;100798.53;;;16.51;100.00
45763;BME280;37512;52.408;13.356;2023-07-13T04:06:05;100805.81;;;16.27;100.00
45763;BME280;37512;52.408;13.356;2023-07-13T04:10:08;100800.22;;;16.27;100.00
45763;BME280;37512;52.408;13.356;2023-07-13T04:14:10;100802.13;;;16.66;100.00
45763;BME280;37512;52.408;13.356;2023-07-13T04:18:12;100808.19;;;16.43;100.00
45763;BME280;37512;52.408;13.356;2023-07-13T04:22:13;100806.50;;;16.70;100.00
45763;BME280;37512;52.408;13.356;2023-07-13T04:26:15;100809.28;;;16.85;100.00
45763;BME280;37512;52.408;13.356;2023-07-13T04:30:16;100810.91;;;16.82;100.00
45763;BME280;37512;52.408;13.356;2023-07-13T04:34:18;100811.28;;;16.91;100.00
45763;BME280;37512;52.408;13.356;2023-07-13T04:38:20;100818.50;;;16.92;100.00
45763;BME280;37512;52.408;13.356;2023-07-13T04:42:22;100826.38;;;17.19;100.00
45763;BME280;37512;52.408;13.356;2023-07-13T04:46:23;100827.44;;;17.47;100.00
45763;BME280;37512;52.408;13.356;2023-07-13T04:50:25;100833.31;;;17.70;100.00
45763;BME280;37512;52.408;13.356;2023-07-13T04:54:27;100828.53;;;17.64;100.00
45763;BME280;37512;52.408;13.356;2023-07-13T04:58:29;100842.38;;;17.96;100.00
45763;BME280;37512;52.408;13.356;2023-07-13T05:02:30;100836.91;;;17.71;100.00
45763;BME280;37512;52.408;13.356;2023-07-13T05:06:33;100848.47;;;17.80;100.00
45763;BME280;37512;52.408;13.356;2023-07-13T05:10:35;100855.53;;;18.06;100.00
45763;BME280;37512;52.408;13.356;2023-07-13T05:14:37;100850.59;;;17.65;100.00
45763;BME280;37512;52.408;13.356;2023-07-13T05:18:38;100845.50;;;18.09;100.00
45763;BME280;37512;52.408;13.356;2023-07-13T05:22:44;100856.69;;;18.12;100.00
45763;BME280;37512;52.408;13.356;2023-07-13T05:26:45;100855.81;;;18.23;100.00
45763;BME280;37512;52.408;13.356;2023-07-13T05:30:48;100850.91;;;18.30;100.00
45763;BME280;37512;52.408;13.356;2023-07-13T05:34:50;100865.19;;;18.50;100.00
45763;BME280;37512;52.408;13.356;2023-07-13T05:38:51;100855.91;;;18.57;100.00
45763;BME280;37512;52.408;13.356;2023-07-13T05:42:53;100850.84;;;18.79;100.00
45763;BME280;37512;52.408;13.356;2023-07-13T05:46:54;100863.94;;;18.96;100.00
45763;BME280;37512;52.408;13.356;2023-07-13T05:50:58;100862.38;;;18.92;100.00
45763;BME280;37512;52.408;13.356;2023-07-13T05:54:59;100866.63;;;19.07;100.00
45763;BME280;37512;52.408;13.356;2023-07-13T05:59:01;100869.97;;;18.95;100.00
45763;BME280;37512;52.408;13.356;2023-07-13T06:03:02;100865.97;;;19.27;100.00
45763;BME280;37512;52.408;13.356;2023-07-13T06:07:04;100867.03;;;19.06;100.00
45763;BME280;37512;52.408;13.356;2023-07-13T06:11:10;100867.88;;;19.02;100.00
45763;BME280;37512;52.408;13.356;2023-07-13T06:15:14;100867.06;;;19.36;100.00
45763;BME280;37512;52.408;13.356;2023-07-13T06:19:19;100868.06;;;19.50;100.00
45763;BME280;37512;52.408;13.356;2023-07-13T06:23:20;100859.56;;;19.26;100.00
45763;BME280;37512;52.408;13.356;2023-07-13T06:27:23;100859.38;;;19.71;100.00
45763;BME280;37512;52.408;13.356;2023-07-13T06:31:25;100859.75;;;19.73;100.00
45763;BME280;37512;52.408;13.356;2023-07-13T06:35:26;100857.66;;;19.77;100.00
45763;BME280;37512;52.408;13.356;2023-07-13T06:39:28;100863.00;;;19.95;100.00
45763;BME280;37512;52.408;13.356;2023-07-13T06:43:30;100865.31;;;20.04;100.00
45763;BME280;37512;52.408;13.356;2023-07-13T06:47:33;100859.91;;;20.13;99.78
45763;BME280;37512;52.408;13.356;2023-07-13T06:51:35;100869.00;;;20.24;98.78
45763;BME280;37512;52.408;13.356;2023-07-13T06:55:37;100868.41;;;20.60;95.08
45763;BME280;37512;52.408;13.356;2023-07-13T06:59:38;100869.16;;;20.64;94.04
45763;BME280;37512;52.408;13.356;2023-07-13T07:03:40;100875.66;;;20.34;97.34
45763;BME280;37512;52.408;13.356;2023-07-13T07:07:42;100868.50;;;20.77;94.25
45763;BME280;37512;52.408;13.356;2023-07-13T07:11:43;100869.19;;;20.61;92.72
45763;BME280;37512;52.408;13.356;2023-07-13T07:16:02;100867.69;;;20.29;92.81
45763;BME280;37512;52.408;13.356;2023-07-13T07:20:04;100872.38;;;20.63;92.99
45763;BME280;37512;52.408;13.356;2023-07-13T07:24:06;100879.72;;;21.00;88.92
45763;BME280;37512;52.408;13.356;2023-07-13T07:28:08;100874.72;;;20.88;89.89
45763;BME280;37512;52.408;13.356;2023-07-13T07:32:13;100873.13;;;21.07;92.02
45763;BME280;37512;52.408;13.356;2023-07-13T07:36:35;100880.75;;;20.90;86.44
45763;BME280;37512;52.408;13.356;2023-07-13T07:40:40;100878.31;;;21.12;85.91
45763;BME280;37512;52.408;13.356;2023-07-13T07:44:45;100882.66;;;21.73;86.00
45763;BME280;37512;52.408;13.356;2023-07-13T07:48:46;100884.75;;;21.69;84.76
45763;BME280;37512;52.408;13.356;2023-07-13T07:52:48;100885.59;;;21.86;83.26
45763;BME280;37512;52.408;13.356;2023-07-13T07:56:53;100891.94;;;21.74;82.23
45763;BME280;37512;52.408;13.356;2023-07-13T08:01:03;100886.75;;;22.05;82.12
45763;BME280;37512;52.408;13.356;2023-07-13T08:05:09;100888.53;;;22.15;80.47
45763;BME280;37512;52.408;13.356;2023-07-13T08:09:13;100885.97;;;22.21;78.99
45763;BME280;37512;52.408;13.356;2023-07-13T08:13:14;100892.03;;;21.86;77.63
45763;BME280;37512;52.408;13.356;2023-07-13T08:17:16;100897.66;;;21.70;78.34
45763;BME280;37512;52.408;13.356;2023-07-13T08:21:18;100888.84;;;21.48;79.77
45763;BME280;37512;52.408;13.356;2023-07-13T08:25:23;100897.09;;;21.59;80.51
45763;BME280;37512;52.408;13.356;2023-07-13T08:29:25;100905.50;;;21.99;80.51
45763;BME280;37512;52.408;13.356;2023-07-13T08:33:26;100898.13;;;22.38;80.75
45763;BME280;37512;52.408;13.356;2023-07-13T08:37:28;100903.66;;;22.58;78.13
45763;BME280;37512;52.408;13.356;2023-07-13T08:41:29;100904.88;;;22.73;76.65
45763;BME280;37512;52.408;13.356;2023-07-13T08:45:43;100900.47;;;22.55;77.95
45763;BME280;37512;52.408;13.356;2023-07-13T08:49:45;100907.53;;;23.09;74.13
45763;BME280;37512;52.408;13.356;2023-07-13T08:53:49;100912.84;;;22.45;73.59
45763;BME280;37512;52.408;13.356;2023-07-13T08:57:59;100912.06;;;22.61;71.30
45763;BME280;37512;52.408;13.356;2023-07-13T09:07:32;100906.59;;;22.38;64.01
45763;BME280;37512;52.408;13.356;2023-07-13T09:11:47;100906.22;;;22.97;59.89
45763;BME280;37512;52.408;13.356;2023-07-13T09:15:52;100905.66;;;22.73;56.30
45763;BME280;37512;52.408;13.356;2023-07-13T09:20:03;100902.31;;;23.37;55.48
45763;BME280;37512;52.408;13.356;2023-07-13T09:24:41;100911.03;;;23.85;54.08
45763;BME280;37512;52.408;13.356;2023-07-13T09:28:47;100915.28;;;23.22;50.16
45763;BME280;37512;52.408;13.356;2023-07-13T09:32:52;100907.06;;;22.82;52.77
45763;BME280;37512;52.408;13.356;2023-07-13T09:36:54;100891.28;;;22.68;58.02
45763;BME280;37512;52.408;13.356;2023-07-13T09:45:07;100904.81;;;22.44;61.70
45763;BME280;37512;52.408;13.356;2023-07-13T09:49:11;100913.59;;;22.95;57.65
45763;BME280;37512;52.408;13.356;2023-07-13T09:53:13;100912.22;;;22.70;60.65
45763;BME280;37512;52.408;13.356;2023-07-13T09:57:18;100917.16;;;22.99;60.00
45763;BME280;37512;52.408;13.356;2023-07-13T10:01:37;100927.66;;;22.82;59.77
45763;BME280;37512;52.408;13.356;2023-07-13T10:05:40;100916.47;;;22.46;59.83
45763;BME280;37512;52.408;13.356;2023-07-13T10:09:42;100919.72;;;22.11;60.83
45763;BME280;37512;52.408;13.356;2023-07-13T10:17:58;100914.63;;;23.01;56.13
45763;BME280;37512;52.408;13.356;2023-07-13T10:22:02;100911.06;;;23.55;53.62
45763;BME280;37512;52.408;13.356;2023-07-13T10:26:21;100923.38;;;23.91;49.33
45763;BME280;37512;52.408;13.356;2023-07-13T10:30:35;100933.88;;;24.67;47.27
45763;BME280;37512;52.408;13.356;2023-07-13T10:34:40;100922.56;;;23.77;49.89
45763;BME280;37512;52.408;13.356;2023-07-13T10:38:46;100929.63;;;23.98;50.56
45763;BME280;37512;52.408;13.356;2023-07-13T10:42:52;100932.06;;;23.71;51.29
45763;BME280;37512;52.408;13.356;2023-07-13T10:47:02;100937.88;;;23.38;54.13
45763;BME280;37512;52.408;13.356;2023-07-13T10:51:06;100933.25;;;24.12;51.10
45763;BME280;37512;52.408;13.356;2023-07-13T10:55:34;100923.69;;;24.57;48.08
45763;BME280;37512;52.408;13.356;2023-07-13T10:59:42;100923.97;;;24.72;47.01
45763;BME280;37512;52.408;13.356;2023-07-13T11:07:54;100910.88;;;25.22;44.58
45763;BME280;37512;52.408;13.356;2023-07-13T11:11:59;100914.19;;;25.20;44.10
45763;BME280;37512;52.408;13.356;2023-07-13T11:16:34;100919.78;;;25.55;40.62
45763;BME280;37512;52.408;13.356;2023-07-13T11:20:37;100913.75;;;24.74;38.27
45763;BME280;37512;52.408;13.356;2023-07-13T11:28:52;100914.09;;;25.11;37.95
45763;BME280;37512;52.408;13.356;2023-07-13T11:37:19;100899.44;;;25.35;37.70
45763;BME280;37512;52.408;13.356;2023-07-13T11:41:23;100900.00;;;25.52;38.95
45763;BME280;37512;52.408;13.356;2023-07-13T11:45:27;100899.69;;;25.81;40.11
45763;BME280;37512;52.408;13.356;2023-07-13T11:49:55;100905.47;;;25.99;38.97
45763;BME280;37512;52.408;13.356;2023-07-13T11:54:20;100901.78;;;26.21;39.90
45763;BME280;37512;52.408;13.356;2023-07-13T11:58:25;100897.47;;;25.76;41.11
45763;BME280;37512;52.408;13.356;2023-07-13T12:02:32;100904.06;;;25.73;39.58
45763;BME280;37512;52.408;13.356;2023-07-13T12:06:35;100893.66;;;26.01;38.61
45763;BME280;37512;52.408;13.356;2023-07-13T12:10:40;100887.97;;;25.48;38.54
45763;BME280;37512;52.408;13.356;2023-07-13T12:14:42;100880.84;;;25.96;38.89
45763;BME280;37512;52.408;13.356;2023-07-13T12:18:44;100897.75;;;26.68;38.84
45763;BME280;37512;52.408;13.356;2023-07-13T12:22:49;100890.84;;;26.10;38.75
45763;BME280;37512;52.408;13.356;2023-07-13T12:27:21;100887.81;;;25.73;39.85
45763;BME280;37512;52.408;13.356;2023-07-13T12:31:45;100897.06;;;26.36;37.26
45763;BME280;37512;52.408;13.356;2023-07-13T12:35:50;100887.84;;;25.82;38.93
45763;BME280;37512;52.408;13.356;2023-07-13T12:39:53;100897.41;;;25.98;37.36
45763;BME280;37512;52.408;13.356;2023-07-13T12:43:55;100882.84;;;27.47;36.38
45763;BME280;37512;52.408;13.356;2023-07-13T12:47:59;100892.94;;;27.57;36.00
45763;BME280;37512;52.408;13.356;2023-07-13T12:52:22;100895.22;;;28.29;37.02
45763;BME280;37512;52.408;13.356;2023-07-13T12:56:26;100896.97;;;27.04;38.88
45763;BME280;37512;52.408;13.356;2023-07-13T13:00:31;100887.47;;;27.44;39.07
45763;BME280;37512;52.408;13.356;2023-07-13T13:04:39;100904.41;;;26.92;36.22
45763;BME280;37512;52.408;13.356;2023-07-13T13:08:41;100896.56;;;25.13;37.85
45763;BME280;37512;52.408;13.356;2023-07-13T13:12:45;100902.00;;;25.20;38.50
45763;BME280;37512;52.408;13.356;2023-07-13T13:16:48;100887.88;;;25.29;40.45
45763;BME280;37512;52.408;13.356;2023-07-13T13:20:51;100894.75;;;26.03;39.07
45763;BME280;37512;52.408;13.356;2023-07-13T13:24:55;100878.75;;;26.46;38.27
45763;BME280;37512;52.408;13.356;2023-07-13T13:28:57;100883.63;;;27.47;37.74
45763;BME280;37512;52.408;13.356;2023-07-13T13:32:58;100898.97;;;27.59;36.12
45763;BME280;37512;52.408;13.356;2023-07-13T13:36:59;100899.16;;;28.55;34.62
45763;BME280;37512;52.408;13.356;2023-07-13T13:41:01;100889.19;;;28.27;34.77
45763;BME280;37512;52.408;13.356;2023-07-13T13:45:03;100892.88;;;28.51;34.60
45763;BME280;37512;52.408;13.356;2023-07-13T13:49:13;100901.53;;;27.39;34.72
45763;BME280;37512;52.408;13.356;2023-07-13T13:53:15;100883.28;;;27.64;33.41
45763;BME280;37512;52.408;13.356;2023-07-13T13:57:17;100907.63;;;28.74;34.00
45763;BME280;37512;52.408;13.356;2023-07-13T14:01:22;100904.59;;;27.26;35.99
45763;BME280;37512;52.408;13.356;2023-07-13T14:05:26;100902.53;;;27.26;36.04
45763;BME280;37512;52.408;13.356;2023-07-13T14:09:27;100900.13;;;27.43;36.74
45763;BME280;37512;52.408;13.356;2023-07-13T14:13:35;100902.94;;;26.51;37.21
45763;BME280;37512;52.408;13.356;2023-07-13T14:17:37;100903.03;;;26.20;36.96
45763;BME280;37512;52.408;13.356;2023-07-13T14:21:45;100889.72;;;26.57;37.26
45763;BME280;37512;52.408;13.356;2023-07-13T14:25:48;100906.56;;;27.62;35.81
45763;BME280;37512;52.408;13.356;2023-07-13T14:29:50;100913.44;;;26.73;36.53
45763;BME280;37512;52.408;13.356;2023-07-13T14:33:52;100906.72;;;27.59;36.25
45763;BME280;37512;52.408;13.356;2023-07-13T14:37:54;100910.75;;;27.06;36.32
45763;BME280;37512;52.408;13.356;2023-07-13T14:41:57;100910.84;;;25.97;37.39
45763;BME280;37512;52.408;13.356;2023-07-13T14:45:59;100925.13;;;27.02;36.63
45763;BME280;37512;52.408;13.356;2023-07-13T14:50:01;100910.94;;;28.24;35.11
45763;BME280;37512;52.408;13.356;2023-07-13T14:54:08;100908.84;;;27.40;35.51
45763;BME280;37512;52.408;13.356;2023-07-13T14:58:10;100908.22;;;27.36;35.60
45763;BME280;37512;52.408;13.356;2023-07-13T15:06:26;100913.56;;;25.48;34.94
45763;BME280;37512;52.408;13.356;2023-07-13T15:10:31;100913.56;;;25.48;34.94
45763;BME280;37512;52.408;13.356;2023-07-13T15:14:34;70141.72;;;-146.77;100.00
45763;BME280;37512;52.408;13.356;2023-07-13T15:18:35;70141.72;;;-146.77;100.00
45763;BME280;37512;52.408;13.356;2023-07-13T15:22:42;70141.72;;;-146.77;100.00
45763;BME280;37512;52.408;13.356;2023-07-13T15:26:43;70141.72;;;-146.77;100.00
45763;BME280;37512;52.408;13.356;2023-07-13T15:30:48;70141.72;;;-146.77;100.00
45763;BME280;37512;52.408;13.356;2023-07-13T15:34:50;70141.72;;;-146.77;100.00
45763;BME280;37512;52.408;13.356;2023-07-13T15:38:53;70141.72;;;-146.77;100.00
45763;BME280;37512;52.408;13.356;2023-07-13T15:42:55;70141.72;;;-146.77;100.00
45763;BME280;37512;52.408;13.356;2023-07-13T15:46:57;70141.72;;;-146.77;100.00
45763;BME280;37512;52.408;13.356;2023-07-13T15:51:04;70141.72;;;-146.77;100.00
45763;BME280;37512;52.408;13.356;2023-07-13T15:55:09;70141.72;;;-146.77;100.00
45763;BME280;37512;52.408;13.356;2023-07-13T15:59:11;70141.72;;;-146.77;100.00
45763;BME280;37512;52.408;13.356;2023-07-13T16:03:15;70141.72;;;-146.77;100.00
45763;BME280;37512;52.408;13.356;2023-07-13T16:07:17;70141.72;;;-146.77;100.00
45763;BME280;37512;52.408;13.356;2023-07-13T16:11:27;70141.72;;;-146.77;100.00
45763;BME280;37512;52.408;13.356;2023-07-13T16:15:31;70141.72;;;-146.77;100.00
45763;BME280;37512;52.408;13.356;2023-07-13T16:19:33;70141.72;;;-146.77;100.00
45763;BME280;37512;52.408;13.356;2023-07-13T16:23:35;70141.72;;;-146.77;100.00
45763;BME280;37512;52.408;13.356;2023-07-13T16:27:54;70141.72;;;-146.77;100.00
45763;BME280;37512;52.408;13.356;2023-07-13T16:32:05;70141.72;;;-146.77;100.00
45763;BME280;37512;52.408;13.356;2023-07-13T16:36:12;70141.72;;;-146.77;100.00
45763;BME280;37512;52.408;13.356;2023-07-13T16:44:25;70141.72;;;-146.77;100.00
45763;BME280;37512;52.408;13.356;2023-07-13T16:48:28;70141.72;;;-146.77;100.00
45763;BME280;37512;52.408;13.356;2023-07-13T16:52:31;70141.72;;;-146.77;100.00
45763;BME280;37512;52.408;13.356;2023-07-13T16:56:33;70141.72;;;-146.77;100.00
45763;BME280;37512;52.408;13.356;2023-07-13T17:00:36;70141.72;;;-146.77;100.00
45763;BME280;37512;52.408;13.356;2023-07-13T17:04:38;70141.72;;;-146.77;100.00
45763;BME280;37512;52.408;13.356;2023-07-13T17:08:42;70141.72;;;-146.77;100.00
45763;BME280;37512;52.408;13.356;2023-07-13T17:12:44;70141.72;;;-146.77;100.00
45763;BME280;37512;52.408;13.356;2023-07-13T17:16:47;70141.72;;;-146.77;100.00
45763;BME280;37512;52.408;13.356;2023-07-13T17:20:50;70141.72;;;-146.77;100.00
45763;BME280;37512;52.408;13.356;2023-07-13T17:24:53;70141.72;;;-146.77;100.00
45763;BME280;37512;52.408;13.356;2023-07-13T17:28:59;70141.72;;;-146.77;100.00
45763;BME280;37512;52.408;13.356;2023-07-13T17:33:00;70141.72;;;-146.77;100.00
45763;BME280;37512;52.408;13.356;2023-07-13T17:37:02;70141.72;;;-146.77;100.00
45763;BME280;37512;52.408;13.356;2023-07-13T17:41:04;70141.72;;;-146.77;100.00
45763;BME280;37512;52.408;13.356;2023-07-13T17:45:06;70141.72;;;-146.77;100.00
45763;BME280;37512;52.408;13.356;2023-07-13T17:49:26;70141.72;;;-146.77;100.00
45763;BME280;37512;52.408;13.356;2023-07-13T17:53:32;70141.72;;;-146.77;100.00
45763;BME280;37512;52.408;13.356;2023-07-13T17:57:34;70141.72;;;-146.77;100.00
45763;BME280;37512;52.408;13.356;2023-07-13T18:01:36;70141.72;;;-146.77;100.00
45763;BME280;37512;52.408;13.356;2023-07-13T18:05:42;70141.72;;;-146.77;100.00
45763;BME280;37512;52.408;13.356;2023-07-13T18:09:44;70141.72;;;-146.77;100.00
45763;BME280;37512;52.408;13.356;2023-07-13T18:13:48;76380.22;;;-146.76;34.94
45763;BME280;37512;52.408;13.356;2023-07-13T18:17:51;70141.72;;;-146.77;34.94
45763;BME280;37512;52.408;13.356;2023-07-13T18:21:53;100913.56;;;25.48;34.94
45763;BME280;37512;52.408;13.356;2023-07-13T18:25:55;101056.63;;;21.27;74.08
45763;BME280;37512;52.408;13.356;2023-07-13T18:29:57;101063.06;;;20.80;75.47
45763;BME280;37512;52.408;13.356;2023-07-13T18:34:02;101073.19;;;21.01;75.67
45763;BME280;37512;52.408;13.356;2023-07-13T18:38:04;101082.41;;;21.05;75.03
45763;BME280;37512;52.408;13.356;2023-07-13T18:42:09;101070.00;;;20.99;73.14
45763;BME280;37512;52.408;13.356;2023-07-13T18:50:32;70141.72;;;-146.77;100.00
45763;BME280;37512;52.408;13.356;2023-07-13T18:54:35;70141.72;;;-146.77;100.00
45763;BME280;37512;52.408;13.356;2023-07-13T18:58:37;101073.94;;;21.05;72.02
45763;BME280;37512;52.408;13.356;2023-07-13T19:02:44;101073.94;;;21.05;72.02
45763;BME280;37512;52.408;13.356;2023-07-13T19:06:46;101073.94;;;21.05;72.02
45763;BME280;37512;52.408;13.356;2023-07-13T19:10:51;70141.72;;;-146.77;0.00
45763;BME280;37512;52.408;13.356;2023-07-13T19:14:54;101073.94;;;21.05;72.02
45763;BME280;37512;52.408;13.356;2023-07-13T19:18:56;101073.94;;;21.05;72.02
45763;BME280;37512;52.408;13.356;2023-07-13T19:23:02;101073.94;;;21.05;72.02
45763;BME280;37512;52.408;13.356;2023-07-13T19:27:12;70141.72;;;-146.77;100.00
45763;BME280;37512;52.408;13.356;2023-07-13T19:31:19;101073.94;;;21.05;72.02
45763;BME280;37512;52.408;13.356;2023-07-13T19:35:22;101073.94;;;21.05;72.02
45763;BME280;37512;52.408;13.356;2023-07-13T19:43:29;70141.72;;;-146.77;100.00
45763;BME280;37512;52.408;13.356;2023-07-13T19:47:30;70141.72;;;-146.77;100.00
45763;BME280;37512;52.408;13.356;2023-07-13T19:51:33;70141.72;;;-146.77;100.00
45763;BME280;37512;52.408;13.356;2023-07-13T19:55:37;70141.72;;;-146.77;65.50
45763;BME280;37512;52.408;13.356;2023-07-13T19:59:39;127277.69;;;-146.77;72.02
45763;BME280;37512;52.408;13.356;2023-07-13T20:03:41;101073.94;;;-61.64;72.02
45763;BME280;37512;52.408;13.356;2023-07-13T20:08:00;101165.84;;;19.28;90.64
45763;BME280;37512;52.408;13.356;2023-07-13T20:12:02;101172.31;;;18.54;97.50
45763;BME280;37512;52.408;13.356;2023-07-13T20:16:05;101181.16;;;19.23;95.12
45763;BME280;37512;52.408;13.356;2023-07-13T20:24:19;101181.16;;;19.23;95.12
45763;BME280;37512;52.408;13.356;2023-07-13T20:28:21;70141.72;;;-146.77;100.00
45763;BME280;37512;52.408;13.356;2023-07-13T20:32:25;101181.16;;;19.23;95.12
45763;BME280;37512;52.408;13.356;2023-07-13T20:36:28;101181.16;;;19.23;95.12
45763;BME280;37512;52.408;13.356;2023-07-13T20:40:32;101181.16;;;19.23;95.12
45763;BME280;37512;52.408;13.356;2023-07-13T20:44:34;101181.16;;;19.23;95.12
45763;BME280;37512;52.408;13.356;2023-07-13T20:48:38;101181.16;;;19.23;95.12
45763;BME280;37512;52.408;13.356;2023-07-13T20:52:41;101181.16;;;19.23;95.12
45763;BME280;37512;52.408;13.356;2023-07-13T20:56:44;101199.53;;;18.75;100.00
45763;BME280;37512;52.408;13.356;2023-07-13T21:00:46;101199.59;;;18.61;100.00
45763;BME280;37512;52.408;13.356;2023-07-13T21:04:48;101208.34;;;18.74;100.00
45763;BME280;37512;52.408;13.356;2023-07-13T21:08:52;101200.44;;;18.47;100.00
45763;BME280;37512;52.408;13.356;2023-07-13T21:12:55;101214.81;;;18.78;100.00
45763;BME280;37512;52.408;13.356;2023-07-13T21:16:57;101216.34;;;18.90;100.00
45763;BME280;37512;52.408;13.356;2023-07-13T21:20:59;101226.25;;;19.12;99.61
45763;BME280;37512;52.408;13.356;2023-07-13T21:25:11;101216.25;;;19.04;99.66
45763;BME280;37512;52.408;13.356;2023-07-13T21:29:13;101222.75;;;18.90;99.80
45763;BME280;37512;52.408;13.356;2023-07-13T21:33:15;101221.25;;;18.64;100.00
45763;BME280;37512;52.408;13.356;2023-07-13T21:37:18;101216.44;;;18.65;100.00